Shelby, Alabama
Current Conditions -  °F | °C
As of 1:53 PM on Thursday 27 Nov 2014 (Local Time) from KEET Reporting Station
Overcast Overcast  
Wind Chill: 43°   Ceiling: 4000
Heat Index: 48°   Visibility: 10mi
Dew Point: 29°   Wind: 10mph
Humidity: 48%   Direction: 310°NW
Pressure: 30.37"   Gusts: 21mph
Location:  33.11°N, 86.58°W
Report Text: KEET 271953Z AUTO 31009G18KT 290V360 10SM BKN040 OVC048 09/M02 A3037 RMK AO2 SLP287 T00891017
Loading
Personal Weather Stations






























Interactive Weather Map New forecast layout! Learn more

10-Day Weather Forecast

Advertisements
Track Severe Weather on mobile